createdAt,value
2024-04-11T07:48:54.509Z,28.28
2024-04-11T07:51:22.856Z,28.00
2024-04-11T07:53:50.882Z,27.89
2024-04-11T07:56:24.815Z,27.85
2024-04-11T07:59:00.065Z,27.55
2024-04-11T08:01:37.453Z,27.59
2024-04-11T08:04:06.440Z,27.65
2024-04-11T08:06:38.532Z,27.10
2024-04-11T08:09:09.107Z,26.71
2024-04-11T08:11:37.004Z,26.52
2024-04-11T08:14:07.512Z,25.88
2024-04-11T08:16:35.337Z,25.86
2024-04-11T08:19:04.132Z,26.01
2024-04-11T08:21:32.962Z,26.25
2024-04-11T08:24:04.502Z,26.59
2024-04-11T08:26:34.451Z,26.92
2024-04-11T08:29:02.725Z,26.82
2024-04-11T08:31:31.809Z,26.66
2024-04-11T08:34:00.191Z,26.03
2024-04-11T08:36:30.993Z,26.30
2024-04-11T08:38:59.777Z,26.01
2024-04-11T08:41:30.994Z,25.79
2024-04-11T08:43:59.144Z,25.44
2024-04-11T08:46:27.039Z,25.29
2024-04-11T08:48:55.313Z,25.39
2024-04-11T08:51:24.067Z,24.95
2024-04-11T08:54:02.680Z,24.98
2024-04-11T08:56:33.195Z,25.52
2024-04-11T08:59:02.210Z,25.50
2024-04-11T09:01:31.344Z,25.35
2024-04-11T09:03:59.497Z,24.80
2024-04-11T09:06:32.367Z,24.59
2024-04-11T09:09:06.341Z,24.72
2024-04-11T09:11:39.280Z,24.85
2024-04-11T09:14:15.339Z,24.93
2024-04-11T09:16:43.721Z,24.74
2024-04-11T09:19:12.145Z,24.40
2024-04-11T09:21:47.095Z,24.48
2024-04-11T09:24:19.014Z,24.59
2024-04-11T09:26:51.402Z,24.74
2024-04-11T09:29:21.396Z,24.83
2024-04-11T09:31:51.092Z,24.68
2024-04-11T09:34:22.323Z,24.64
2024-04-11T09:36:56.488Z,24.68
2024-04-11T09:39:51.214Z,24.78
2024-04-11T09:42:20.175Z,25.09
2024-04-11T09:44:55.202Z,25.09
2024-04-11T09:47:37.335Z,25.18
2024-04-11T09:50:12.121Z,24.66
2024-04-11T09:52:51.264Z,24.86
2024-04-11T09:55:34.901Z,25.14
2024-04-11T09:58:11.687Z,25.20
2024-04-11T10:01:04.603Z,24.03
2024-04-11T10:03:35.385Z,24.08
2024-04-11T10:06:31.555Z,24.24
2024-04-11T10:09:18.983Z,24.04
2024-04-11T10:11:48.060Z,23.99
2024-04-11T10:14:21.517Z,24.23
2024-04-11T10:16:50.397Z,23.83
2024-04-11T10:19:28.509Z,24.29
2024-04-11T10:22:06.619Z,23.78
2024-04-11T10:24:38.026Z,23.36
2024-04-11T10:27:11.559Z,23.75
2024-04-11T10:29:48.046Z,23.88
2024-04-11T10:32:23.722Z,23.77
2024-04-11T10:34:59.067Z,23.99
2024-04-11T10:37:28.089Z,23.93
2024-04-11T10:39:59.042Z,24.13
2024-04-11T10:42:39.621Z,24.02
2024-04-11T10:45:20.069Z,24.23
2024-04-11T10:47:48.291Z,24.32
2024-04-11T10:50:16.733Z,24.29
2024-04-11T10:52:48.036Z,24.71
2024-04-11T10:55:30.527Z,24.97
2024-04-11T10:58:23.941Z,25.05
2024-04-11T11:01:02.360Z,24.23
2024-04-11T11:03:47.409Z,23.91
2024-04-11T11:06:30.964Z,24.30
2024-04-11T11:09:11.956Z,24.29
2024-04-11T11:11:45.104Z,24.73
2024-04-11T11:14:18.429Z,24.85
2024-04-11T11:16:48.833Z,24.20
2024-04-11T11:19:17.656Z,24.31
2024-04-11T11:21:52.357Z,24.36
2024-04-11T11:24:28.048Z,23.77
2024-04-11T11:26:57.488Z,23.91
2024-04-11T11:29:30.271Z,23.89
2024-04-11T11:32:22.749Z,24.16
2024-04-11T11:34:52.797Z,24.46
2024-04-11T11:37:24.839Z,24.91
2024-04-11T11:39:56.832Z,24.96
2024-04-11T11:42:29.104Z,25.21
2024-04-11T11:45:00.078Z,25.57
2024-04-11T11:47:36.321Z,25.63
2024-04-11T11:50:18.939Z,26.06
2024-04-11T11:52:54.462Z,26.13
2024-04-11T11:55:28.000Z,26.31
2024-04-11T11:58:07.744Z,26.33
2024-04-11T12:00:52.116Z,26.35
2024-04-11T12:03:28.062Z,26.22
2024-04-11T12:06:02.457Z,26.24
2024-04-11T12:08:38.077Z,26.27
2024-04-11T12:11:05.986Z,25.86
2024-04-11T12:13:43.404Z,25.84
2024-04-11T12:16:17.577Z,25.95
2024-04-11T12:18:49.592Z,26.07
2024-04-11T12:21:28.497Z,26.09
2024-04-11T12:23:58.059Z,25.82
2024-04-11T12:26:34.996Z,25.26
2024-04-11T12:29:05.735Z,25.55
2024-04-11T12:31:36.987Z,25.08
2024-04-11T12:34:06.951Z,24.84
2024-04-11T12:37:04.096Z,24.88
2024-04-11T12:39:35.389Z,25.15
2024-04-11T12:42:08.808Z,24.91
2024-04-11T12:44:39.397Z,25.11
2024-04-11T12:47:16.408Z,25.58
2024-04-11T12:49:48.620Z,25.82
2024-04-11T12:52:24.527Z,25.80
2024-04-11T12:55:00.616Z,25.94
2024-04-11T12:57:31.810Z,26.02
2024-04-11T13:00:11.339Z,25.91
2024-04-11T13:02:41.147Z,26.01
2024-04-11T13:05:15.564Z,26.01
2024-04-11T13:07:47.831Z,26.14
2024-04-11T13:10:15.737Z,26.34
2024-04-11T13:12:45.535Z,26.39
2024-04-11T13:15:21.442Z,26.74
2024-04-11T13:17:54.656Z,27.22
2024-04-11T13:20:30.560Z,27.38
2024-04-11T13:23:11.370Z,27.45
2024-04-11T13:25:47.138Z,27.72
2024-04-11T13:28:15.635Z,28.03
2024-04-11T13:30:47.781Z,28.25
2024-04-11T13:33:19.660Z,28.42
2024-04-11T13:35:51.484Z,28.51
2024-04-11T13:38:25.678Z,28.54
2024-04-11T13:41:15.554Z,28.45
2024-04-11T13:43:43.832Z,28.44
2024-04-11T13:46:12.720Z,27.97
2024-04-11T13:48:51.946Z,28.05
2024-04-11T13:51:30.846Z,28.11
2024-04-11T13:54:04.598Z,27.93
2024-04-11T13:56:39.832Z,28.17
2024-04-11T13:59:10.667Z,28.34
2024-04-11T14:01:52.961Z,28.24
2024-04-11T14:05:04.855Z,28.58
2024-04-11T14:07:46.951Z,28.33
2024-04-11T14:10:25.935Z,28.68
2024-04-11T14:13:41.505Z,28.59
2024-04-11T14:17:15.161Z,27.91
2024-04-11T14:20:55.801Z,28.09
2024-04-11T14:28:32.178Z,28.39
2024-04-11T14:31:42.281Z,29.10
2024-04-11T14:34:21.513Z,30.15
2024-04-11T14:37:37.577Z,31.95
2024-04-11T14:40:14.314Z,32.68
2024-04-11T14:46:40.687Z,33.98
2024-04-11T14:57:31.971Z,34.87
2024-04-11T15:00:22.364Z,35.04
2024-04-11T15:02:56.060Z,35.46
2024-04-11T15:05:28.451Z,35.70
2024-04-11T15:22:49.775Z,36.90
2024-04-11T15:31:03.068Z,37.30
2024-04-11T15:33:55.945Z,37.59
2024-04-11T15:37:22.254Z,37.87
2024-04-11T15:43:57.223Z,38.52
2024-04-11T15:46:35.987Z,38.66
2024-04-11T15:49:08.137Z,38.95
2024-04-11T15:51:53.627Z,39.28
2024-04-11T15:54:58.624Z,39.55
2024-04-11T15:57:39.838Z,39.84
2024-04-11T16:00:32.945Z,40.22
2024-04-11T16:03:16.451Z,40.81
2024-04-11T16:06:57.181Z,41.41
2024-04-11T16:11:15.282Z,42.23
2024-04-11T16:13:48.623Z,42.66
2024-04-11T16:16:35.196Z,43.01
2024-04-11T16:19:17.744Z,43.48
2024-04-11T16:21:51.942Z,43.78
2024-04-11T16:24:41.125Z,43.90
2024-04-11T16:27:14.468Z,44.43
2024-04-11T16:29:50.093Z,44.52
2024-04-11T16:32:21.771Z,44.70
2024-04-11T16:34:59.244Z,44.90
2024-04-11T16:38:13.321Z,45.27
2024-04-11T16:40:53.880Z,45.49
2024-04-11T16:44:25.605Z,45.77
2024-04-11T16:47:09.297Z,45.72
2024-04-11T16:49:43.951Z,45.91
2024-04-11T16:52:18.839Z,45.93
2024-04-11T16:59:11.899Z,46.15
2024-04-11T17:32:49.486Z,46.25
2024-04-11T17:55:35.147Z,46.00
2024-04-11T17:59:28.071Z,45.88
2024-04-11T18:02:02.297Z,45.87
2024-04-11T18:05:13.924Z,46.06
2024-04-11T18:08:16.877Z,46.46
2024-04-11T18:11:49.950Z,46.72
2024-04-11T18:14:40.025Z,47.25
2024-04-11T18:17:15.630Z,47.19
2024-04-11T18:19:48.203Z,47.35
2024-04-11T18:22:24.017Z,47.27
2024-04-11T18:25:14.503Z,47.33
2024-04-11T18:28:34.045Z,47.23
2024-04-11T18:35:50.291Z,47.14
2024-04-11T18:38:35.478Z,47.25
2024-04-11T18:41:33.718Z,47.03
2024-04-11T18:44:08.611Z,47.27
2024-04-11T18:46:58.294Z,47.30
2024-04-11T18:54:16.571Z,47.57
2024-04-11T19:01:27.919Z,48.04
2024-04-11T19:04:52.487Z,48.23
2024-04-11T19:07:35.748Z,48.37
2024-04-11T19:11:33.144Z,48.44
2024-04-11T19:14:41.670Z,48.63
2024-04-11T19:17:46.425Z,48.69
2024-04-11T19:20:32.758Z,48.83
2024-04-11T19:23:50.997Z,49.00
2024-04-11T19:26:55.584Z,49.08
2024-04-11T19:29:38.361Z,49.03
2024-04-11T19:33:00.197Z,49.17
2024-04-11T19:35:32.519Z,49.06
2024-04-11T19:38:14.572Z,49.09
2024-04-11T19:41:01.167Z,49.10
2024-04-11T19:43:38.761Z,49.04
2024-04-11T19:46:15.182Z,49.14
2024-04-11T19:49:25.077Z,49.29
2024-04-11T19:52:07.307Z,49.12
2024-04-11T19:54:48.900Z,49.04
2024-04-11T19:57:21.575Z,49.04
2024-04-11T20:06:19.138Z,49.66
2024-04-11T20:08:50.884Z,49.03
2024-04-11T20:11:23.462Z,48.79
2024-04-11T20:14:11.868Z,48.78
2024-04-11T20:16:39.830Z,48.74
2024-04-11T20:19:07.847Z,48.78
2024-04-11T20:21:39.718Z,48.85
2024-04-11T20:24:12.034Z,48.90
2024-04-11T20:26:44.295Z,48.89
2024-04-11T20:29:16.656Z,49.01
2024-04-11T20:31:44.112Z,48.92
2024-04-11T20:34:11.565Z,49.05
2024-04-11T20:36:41.190Z,49.09
2024-04-11T20:39:13.973Z,49.15
2024-04-11T20:41:51.152Z,49.03
2024-04-11T20:44:28.540Z,49.02
2024-04-11T20:47:04.586Z,48.96
2024-04-11T20:49:39.437Z,48.96
2024-04-11T20:52:27.312Z,48.74
2024-04-11T20:55:13.614Z,48.86
2024-04-11T20:57:59.464Z,49.28
2024-04-11T21:00:46.356Z,49.32
2024-04-11T21:03:32.077Z,49.19
2024-04-11T21:06:18.439Z,49.06
2024-04-11T21:09:06.772Z,49.11
2024-04-11T21:11:52.688Z,48.82
2024-04-11T21:14:38.435Z,48.82
2024-04-11T21:17:25.941Z,48.81
2024-04-11T21:20:14.134Z,48.75
2024-04-11T21:26:44.821Z,48.79
2024-04-11T21:29:31.446Z,48.70
2024-04-11T21:32:18.127Z,48.78
2024-04-11T21:34:46.604Z,48.67
2024-04-11T21:37:14.232Z,48.58
2024-04-11T21:39:42.081Z,48.46
2024-04-11T21:42:09.860Z,48.27
2024-04-11T21:44:40.593Z,48.34
2024-04-11T21:47:13.393Z,48.35
2024-04-11T21:49:41.583Z,48.33
2024-04-11T21:52:12.057Z,48.27
2024-04-11T21:54:44.675Z,48.23
2024-04-11T21:57:13.204Z,48.30
2024-04-11T21:59:43.942Z,48.13
2024-04-11T22:02:21.901Z,48.24
2024-04-11T22:04:52.817Z,48.31
2024-04-11T22:07:23.082Z,48.24
2024-04-11T22:09:50.459Z,48.20
2024-04-11T22:12:29.334Z,48.48
2024-04-11T22:15:00.292Z,48.48
2024-04-11T22:17:34.220Z,48.30
2024-04-11T22:20:06.863Z,48.51
2024-04-11T22:22:45.352Z,48.76
2024-04-11T22:25:16.869Z,48.75
2024-04-11T22:27:50.537Z,48.83
2024-04-11T22:30:17.479Z,48.92
2024-04-11T22:32:45.482Z,49.11
2024-04-11T22:35:12.686Z,49.28
2024-04-11T22:37:42.007Z,49.22
2024-04-11T22:40:14.861Z,49.35
2024-04-11T22:42:43.284Z,49.42
2024-04-11T22:45:10.470Z,49.36
2024-04-11T22:47:40.703Z,49.42
2024-04-11T22:50:12.413Z,49.36
2024-04-11T22:52:40.443Z,49.24
2024-04-11T22:55:16.015Z,49.24
2024-04-11T22:57:49.806Z,49.26
2024-04-11T23:00:30.280Z,49.24
2024-04-11T23:03:00.728Z,49.19
2024-04-11T23:05:28.005Z,49.22
2024-04-11T23:08:00.778Z,49.14
2024-04-11T23:10:40.458Z,49.18
2024-04-11T23:13:15.099Z,49.30
2024-04-11T23:15:48.727Z,49.27
2024-04-11T23:18:17.700Z,49.12
2024-04-11T23:20:47.328Z,49.06
2024-04-11T23:23:19.092Z,49.18
2024-04-11T23:25:50.840Z,49.34
2024-04-11T23:28:18.855Z,49.40
2024-04-11T23:30:47.286Z,49.37
2024-04-11T23:33:21.777Z,49.28
2024-04-11T23:35:49.571Z,49.40
2024-04-11T23:38:17.230Z,49.38
2024-04-11T23:40:45.604Z,49.32
2024-04-11T23:43:23.827Z,49.34
2024-04-11T23:45:59.268Z,49.41
2024-04-11T23:48:39.786Z,49.54
2024-04-11T23:51:20.832Z,49.51
2024-04-11T23:53:56.134Z,49.50
2024-04-11T23:56:36.682Z,49.68
2024-04-11T23:59:13.874Z,49.75
